createdAt,value
2022-08-20T00:02:28.120Z,21.30
2022-08-20T00:04:56.211Z,21.26
2022-08-20T00:07:24.293Z,21.22
2022-08-20T00:09:52.402Z,21.20
2022-08-20T00:12:20.570Z,21.15
2022-08-20T00:14:50.028Z,21.11
2022-08-20T00:17:18.231Z,21.08
2022-08-20T00:19:46.562Z,21.04
2022-08-20T00:22:14.676Z,21.02
2022-08-20T00:24:43.109Z,20.99
2022-08-20T00:27:11.253Z,20.96
2022-08-20T00:29:39.495Z,20.93
2022-08-20T00:32:09.120Z,20.88
2022-08-20T00:34:37.298Z,20.82
2022-08-20T00:37:05.804Z,20.76
2022-08-20T00:39:33.969Z,20.71
2022-08-20T00:42:03.429Z,20.66
2022-08-20T00:44:31.882Z,20.60
2022-08-20T00:47:00.531Z,20.55
2022-08-20T00:49:32.705Z,20.50
2022-08-20T00:52:07.495Z,20.46
2022-08-20T00:54:40.814Z,20.41
2022-08-20T00:57:13.531Z,20.36
2022-08-20T00:59:43.855Z,20.35
2022-08-20T01:02:17.633Z,20.31
2022-08-20T01:04:49.939Z,20.27
2022-08-20T01:07:20.407Z,20.26
2022-08-20T01:09:58.881Z,20.24
2022-08-20T01:12:30.789Z,20.23
2022-08-20T01:15:02.028Z,20.27
2022-08-20T01:17:35.010Z,20.30
2022-08-20T01:20:12.103Z,20.35
2022-08-20T01:23:04.401Z,20.38
2022-08-20T01:25:47.435Z,20.39
2022-08-20T01:28:19.255Z,20.40
2022-08-20T01:30:47.690Z,20.39
2022-08-20T01:33:15.913Z,20.38
2022-08-20T01:35:44.509Z,20.36
2022-08-20T01:38:13.623Z,20.35
2022-08-20T01:41:28.330Z,20.29
2022-08-20T01:43:58.839Z,20.25
2022-08-20T01:46:34.981Z,20.25
2022-08-20T01:49:13.489Z,20.21
2022-08-20T01:51:44.170Z,20.19
2022-08-20T01:54:13.220Z,20.16
2022-08-20T01:56:56.673Z,20.14
2022-08-20T01:59:25.506Z,20.11
2022-08-20T02:01:54.513Z,20.11
2022-08-20T02:04:23.302Z,20.09
2022-08-20T02:06:57.709Z,20.11
2022-08-20T02:09:28.636Z,20.09
2022-08-20T02:11:59.058Z,20.06
2022-08-20T02:14:28.602Z,20.03
2022-08-20T02:16:58.341Z,20.00
2022-08-20T02:19:32.803Z,20.01
2022-08-20T02:22:07.353Z,20.02
2022-08-20T02:24:35.508Z,20.00
2022-08-20T02:27:05.204Z,19.96
2022-08-20T02:29:33.478Z,19.90
2022-08-20T02:32:32.125Z,19.82
2022-08-20T02:34:50.622Z,19.70
2022-08-20T02:37:19.185Z,19.63
2022-08-20T02:39:47.982Z,19.57
2022-08-20T02:42:18.144Z,19.52
2022-08-20T02:44:46.423Z,19.46
2022-08-20T02:47:14.503Z,19.41
2022-08-20T02:49:42.686Z,19.36
2022-08-20T02:52:10.994Z,19.33
2022-08-20T02:54:39.150Z,19.32
2022-08-20T02:57:13.378Z,19.32
2022-08-20T02:59:43.126Z,19.31
2022-08-20T03:02:12.017Z,19.29
2022-08-20T03:04:40.742Z,19.25
2022-08-20T03:07:10.383Z,19.20
2022-08-20T03:09:39.769Z,19.17
2022-08-20T03:12:08.540Z,19.13
2022-08-20T03:14:37.357Z,19.08
2022-08-20T03:17:06.924Z,19.03
2022-08-20T03:19:35.083Z,18.99
2022-08-20T03:22:03.297Z,18.95
2022-08-20T03:24:31.483Z,18.93
2022-08-20T03:26:59.712Z,18.88
2022-08-20T03:29:27.793Z,18.83
2022-08-20T03:31:55.907Z,18.79
2022-08-20T03:34:25.376Z,18.76
2022-08-20T03:36:53.509Z,18.75
2022-08-20T03:39:21.741Z,18.75
2022-08-20T03:41:49.894Z,18.76
2022-08-20T03:44:18.569Z,18.76
2022-08-20T03:46:46.731Z,18.77
2022-08-20T03:49:14.879Z,18.81
2022-08-20T03:51:57.906Z,18.85
2022-08-20T03:54:30.214Z,18.87
2022-08-20T03:57:02.214Z,18.92
2022-08-20T03:59:32.968Z,18.96
2022-08-20T04:02:01.641Z,18.99
2022-08-20T04:04:29.867Z,18.96
2022-08-20T04:06:59.468Z,18.95
2022-08-20T04:09:27.604Z,18.92
2022-08-20T04:11:58.720Z,18.88
2022-08-20T04:14:26.857Z,18.83
2022-08-20T04:16:57.429Z,18.78
2022-08-20T04:19:25.519Z,18.73
2022-08-20T04:21:53.698Z,18.69
2022-08-20T04:24:31.900Z,18.65
2022-08-20T04:27:02.604Z,18.60
2022-08-20T04:29:32.400Z,18.58
2022-08-20T04:32:05.617Z,18.55
2022-08-20T04:34:35.214Z,18.55
2022-08-20T04:37:03.599Z,18.53
2022-08-20T04:39:33.627Z,18.52
2022-08-20T04:42:01.790Z,18.53
2022-08-20T04:44:29.969Z,18.54
2022-08-20T04:47:02.005Z,18.53
2022-08-20T04:49:31.182Z,18.49
2022-08-20T04:51:59.407Z,18.45
2022-08-20T04:54:27.537Z,18.42
2022-08-20T04:56:56.936Z,18.39
2022-08-20T04:59:25.107Z,18.40
2022-08-20T05:01:53.174Z,18.42
2022-08-20T05:04:21.376Z,18.49
2022-08-20T05:06:50.313Z,18.52
2022-08-20T05:09:18.442Z,18.55
2022-08-20T05:11:46.596Z,18.60
2022-08-20T05:14:16.155Z,18.65
2022-08-20T05:16:44.315Z,18.69
2022-08-20T05:19:14.610Z,18.73
2022-08-20T05:21:42.801Z,18.74
2022-08-20T05:24:11.717Z,18.77
2022-08-20T05:26:40.170Z,18.77
2022-08-20T05:29:08.307Z,18.79
2022-08-20T05:31:38.473Z,18.79
2022-08-20T05:34:11.142Z,18.80
2022-08-20T05:36:43.717Z,18.78
2022-08-20T05:39:13.350Z,18.76
2022-08-20T05:41:42.135Z,18.71
2022-08-20T05:44:13.705Z,18.65
2022-08-20T05:46:45.968Z,18.58
2022-08-20T05:49:19.555Z,18.52
2022-08-20T05:51:48.141Z,18.49
2022-08-20T05:54:16.827Z,18.49
2022-08-20T05:56:45.149Z,18.52
2022-08-20T05:59:14.055Z,18.52
2022-08-20T06:01:44.327Z,18.49
2022-08-20T06:04:28.562Z,18.48
2022-08-20T06:07:02.726Z,18.47
2022-08-20T06:09:32.851Z,18.47
2022-08-20T06:12:04.104Z,18.50
2022-08-20T06:14:33.192Z,18.51
2022-08-20T06:17:09.932Z,18.54
2022-08-20T06:19:39.869Z,18.65
2022-08-20T06:22:19.571Z,18.82
2022-08-20T06:24:54.957Z,18.98
2022-08-20T06:27:24.227Z,19.08
2022-08-20T06:29:52.442Z,19.17
2022-08-20T06:32:32.225Z,19.25
2022-08-20T06:35:03.227Z,19.32
2022-08-20T06:37:33.705Z,19.43
2022-08-20T06:40:06.574Z,19.55
2022-08-20T06:42:34.893Z,19.68
2022-08-20T06:45:05.008Z,19.77
2022-08-20T06:47:36.045Z,19.83
2022-08-20T06:50:04.599Z,19.84
2022-08-20T06:52:52.175Z,19.82
2022-08-20T06:55:21.986Z,19.78
2022-08-20T06:57:59.045Z,19.73
2022-08-20T07:00:27.952Z,19.79
2022-08-20T07:02:59.816Z,19.90
2022-08-20T07:05:28.066Z,20.00
2022-08-20T07:07:56.307Z,20.11
2022-08-20T07:10:25.836Z,20.19
2022-08-20T07:12:54.079Z,20.20
2022-08-20T07:15:25.733Z,20.16
2022-08-20T07:18:01.140Z,20.19
2022-08-20T07:20:31.689Z,20.27
2022-08-20T07:23:00.576Z,20.32
2022-08-20T07:25:31.781Z,20.33
2022-08-20T07:28:02.651Z,20.37
2022-08-20T07:30:56.436Z,20.44
2022-08-20T07:33:28.584Z,20.56
2022-08-20T07:35:58.437Z,20.64
2022-08-20T07:38:30.899Z,20.63
2022-08-20T07:41:02.070Z,20.74
2022-08-20T07:43:30.580Z,20.94
2022-08-20T07:46:02.813Z,21.16
2022-08-20T07:48:33.059Z,21.37
2022-08-20T07:51:04.741Z,21.52
2022-08-20T07:53:35.845Z,21.64
2022-08-20T07:56:10.139Z,21.74
2022-08-20T07:58:43.980Z,21.84
2022-08-20T08:01:12.402Z,21.93
2022-08-20T08:03:49.802Z,21.99
2022-08-20T08:06:30.462Z,21.98
2022-08-20T08:09:04.604Z,21.94
2022-08-20T08:11:34.948Z,21.90
2022-08-20T08:14:06.829Z,21.90
2022-08-20T08:16:35.818Z,21.89
2022-08-20T08:19:08.202Z,21.97
2022-08-20T08:21:36.641Z,22.05
2022-08-20T08:24:05.658Z,22.13
2022-08-20T08:26:33.915Z,22.17
2022-08-20T08:29:02.432Z,22.25
2022-08-20T08:31:30.535Z,22.38
2022-08-20T08:33:58.655Z,22.53
2022-08-20T08:36:28.142Z,22.68
2022-08-20T08:38:56.643Z,22.75
2022-08-20T08:41:31.908Z,22.76
2022-08-20T08:44:08.349Z,22.78
2022-08-20T08:46:42.252Z,22.88
2022-08-20T08:49:14.657Z,22.97
2022-08-20T08:51:47.971Z,23.09
2022-08-20T08:54:17.949Z,23.18
2022-08-20T08:56:49.784Z,23.23
2022-08-20T08:59:20.147Z,23.27
2022-08-20T09:01:56.904Z,23.32
2022-08-20T09:04:35.668Z,23.37
2022-08-20T09:07:10.878Z,23.48
2022-08-20T09:09:43.095Z,23.61
2022-08-20T09:12:14.940Z,23.70
2022-08-20T09:14:43.115Z,23.73
2022-08-20T09:17:11.261Z,23.78
2022-08-20T09:19:39.460Z,23.89
2022-08-20T09:22:14.536Z,23.94
2022-08-20T09:24:43.325Z,23.97
2022-08-20T09:27:12.241Z,23.99
2022-08-20T09:29:41.077Z,24.02
2022-08-20T09:32:13.596Z,24.15
2022-08-20T09:34:45.544Z,24.29
2022-08-20T09:37:16.087Z,24.40
2022-08-20T09:39:44.336Z,24.50
2022-08-20T09:42:16.862Z,24.68
2022-08-20T09:44:45.683Z,24.78
2022-08-20T09:47:14.062Z,24.82
2022-08-20T09:49:42.273Z,24.88
2022-08-20T09:52:18.104Z,24.86
2022-08-20T09:54:46.803Z,24.77
2022-08-20T09:57:16.533Z,24.79
2022-08-20T09:59:46.306Z,24.89
2022-08-20T10:02:14.359Z,25.09
2022-08-20T10:04:42.487Z,25.30
2022-08-20T10:07:10.780Z,25.46
2022-08-20T10:09:40.252Z,25.42
2022-08-20T10:12:09.241Z,25.46
2022-08-20T10:14:37.311Z,25.57
2022-08-20T10:17:08.546Z,25.65
2022-08-20T10:19:36.754Z,25.77
2022-08-20T10:22:05.749Z,25.89
2022-08-20T10:24:33.989Z,26.01
2022-08-20T10:27:04.050Z,26.15
2022-08-20T10:29:33.121Z,26.36
2022-08-20T10:32:12.271Z,26.58
2022-08-20T10:34:41.253Z,26.87
2022-08-20T10:37:11.052Z,27.09
2022-08-20T10:39:39.359Z,27.27
2022-08-20T10:42:09.030Z,27.31
2022-08-20T10:44:37.166Z,27.14
2022-08-20T10:47:21.199Z,26.95
2022-08-20T10:49:50.833Z,26.78
2022-08-20T10:52:19.220Z,26.85
2022-08-20T10:54:47.661Z,27.06
2022-08-20T10:57:20.669Z,27.17
2022-08-20T10:59:52.293Z,27.28
2022-08-20T11:02:21.734Z,27.36
2022-08-20T11:04:50.930Z,27.44
2022-08-20T11:08:08.496Z,27.60
2022-08-20T11:10:18.000Z,27.84
2022-08-20T11:12:47.464Z,28.11
2022-08-20T11:15:16.830Z,28.25
2022-08-20T11:17:45.816Z,28.32
2022-08-20T11:20:19.115Z,28.45
2022-08-20T11:22:47.796Z,28.42
2022-08-20T11:25:16.150Z,28.36
2022-08-20T11:27:49.342Z,28.22
2022-08-20T11:30:21.027Z,28.38
2022-08-20T11:32:49.599Z,28.70
2022-08-20T11:35:41.695Z,29.06
2022-08-20T11:38:06.928Z,29.40
2022-08-20T11:40:35.229Z,29.64
2022-08-20T11:43:20.040Z,29.69
2022-08-20T11:45:51.939Z,29.52
2022-08-20T11:48:20.308Z,29.45
2022-08-20T11:50:49.453Z,29.37
2022-08-20T11:53:17.764Z,29.43
2022-08-20T11:55:46.301Z,29.85
2022-08-20T11:58:17.529Z,30.21
2022-08-20T12:00:45.765Z,30.64
2022-08-20T12:03:14.113Z,31.17
2022-08-20T12:05:45.395Z,31.40
2022-08-20T12:08:26.759Z,31.09
2022-08-20T12:10:57.674Z,30.64
2022-08-20T12:13:35.987Z,30.20
2022-08-20T12:16:16.012Z,29.86
2022-08-20T12:18:44.105Z,29.65
2022-08-20T12:21:12.464Z,29.43
2022-08-20T12:23:40.587Z,29.32
2022-08-20T12:26:08.811Z,29.20
2022-08-20T12:28:38.258Z,29.21
2022-08-20T12:31:06.759Z,29.49
2022-08-20T12:33:34.914Z,30.32
2022-08-20T12:36:03.434Z,30.73
2022-08-20T12:38:31.585Z,30.98
2022-08-20T12:40:59.687Z,31.16
2022-08-20T12:43:27.837Z,31.11
2022-08-20T12:45:57.298Z,30.92
2022-08-20T12:48:25.598Z,30.74
2022-08-20T12:50:53.820Z,30.62
2022-08-20T12:53:21.984Z,30.87
2022-08-20T12:55:50.180Z,31.35
2022-08-20T12:58:19.387Z,32.01
2022-08-20T13:00:51.093Z,32.72
2022-08-20T13:03:21.757Z,33.42
2022-08-20T13:05:50.840Z,34.17
2022-08-20T13:08:19.466Z,35.07
2022-08-20T13:10:48.357Z,35.74
2022-08-20T13:13:20.168Z,36.19
2022-08-20T13:15:50.948Z,36.46
2022-08-20T13:18:21.409Z,36.81
2022-08-20T13:20:50.339Z,36.82
2022-08-20T13:23:18.723Z,35.96
2022-08-20T13:25:46.812Z,34.81
2022-08-20T13:28:14.952Z,34.37
2022-08-20T13:30:43.063Z,34.66
2022-08-20T13:33:11.576Z,34.51
2022-08-20T13:35:41.084Z,34.36
2022-08-20T13:38:09.214Z,34.28
2022-08-20T13:40:37.411Z,33.65
2022-08-20T13:43:07.403Z,33.22
2022-08-20T13:45:36.373Z,32.89
2022-08-20T13:48:06.922Z,33.37
2022-08-20T13:50:40.013Z,34.42
2022-08-20T13:53:08.118Z,35.21
2022-08-20T13:55:39.086Z,35.52
2022-08-20T13:58:08.642Z,35.85
2022-08-20T14:00:37.588Z,36.46
2022-08-20T14:03:07.623Z,36.49
2022-08-20T14:05:36.355Z,37.12
2022-08-20T14:08:12.357Z,37.47
2022-08-20T14:10:42.547Z,37.89
2022-08-20T14:13:15.436Z,38.29
2022-08-20T14:15:44.663Z,38.23
2022-08-20T14:18:14.343Z,38.24
2022-08-20T14:20:45.308Z,38.67
2022-08-20T14:23:15.389Z,39.39
2022-08-20T14:25:47.213Z,40.28
2022-08-20T14:28:18.883Z,40.33
2022-08-20T14:30:53.164Z,40.16
2022-08-20T14:33:23.117Z,40.36
2022-08-20T14:35:51.403Z,40.27
2022-08-20T14:38:20.908Z,40.06
2022-08-20T14:40:50.439Z,39.90
2022-08-20T14:43:19.045Z,39.82
2022-08-20T14:45:47.170Z,39.72
2022-08-20T14:48:15.892Z,39.87
2022-08-20T14:50:44.234Z,40.01
2022-08-20T14:53:12.302Z,39.69
2022-08-20T14:55:41.892Z,38.18
2022-08-20T14:58:12.371Z,36.41
2022-08-20T15:00:41.902Z,35.46
2022-08-20T15:03:10.379Z,35.07
2022-08-20T15:05:39.215Z,34.48
2022-08-20T15:08:08.977Z,34.06
2022-08-20T15:10:40.811Z,35.08
2022-08-20T15:13:09.351Z,36.98
2022-08-20T15:15:37.676Z,37.96
2022-08-20T15:18:06.132Z,38.67
2022-08-20T15:20:37.497Z,38.92
2022-08-20T15:23:06.013Z,39.11
2022-08-20T15:25:38.086Z,39.57
2022-08-20T15:28:10.501Z,39.64
2022-08-20T15:30:41.337Z,40.32
2022-08-20T15:33:10.662Z,40.63
2022-08-20T15:35:38.866Z,39.91
2022-08-20T15:38:06.985Z,38.63
2022-08-20T15:40:35.257Z,37.39
2022-08-20T15:43:05.215Z,36.80
2022-08-20T15:45:36.013Z,35.67
2022-08-20T15:48:13.625Z,34.54
2022-08-20T15:50:57.659Z,33.49
2022-08-20T15:53:33.902Z,32.77
2022-08-20T15:56:18.518Z,32.60
2022-08-20T15:58:59.746Z,32.68
2022-08-20T16:01:50.601Z,32.94
2022-08-20T16:04:51.487Z,32.56
2022-08-20T16:07:26.921Z,32.12
2022-08-20T16:10:06.413Z,31.87
2022-08-20T16:12:38.427Z,31.66
2022-08-20T16:15:11.793Z,31.85
2022-08-20T16:17:47.598Z,32.48
2022-08-20T16:20:22.746Z,34.24
2022-08-20T16:22:51.072Z,35.56
2022-08-20T16:25:22.802Z,36.82
2022-08-20T16:28:04.878Z,38.15
2022-08-20T16:30:40.451Z,39.12
2022-08-20T16:33:25.470Z,38.84
2022-08-20T16:36:03.657Z,38.97
2022-08-20T16:38:41.513Z,38.74
2022-08-20T16:41:15.623Z,37.48
2022-08-20T16:43:52.746Z,36.18
2022-08-20T16:46:26.216Z,36.26
2022-08-20T16:48:59.407Z,37.17
2022-08-20T16:51:40.737Z,38.15
2022-08-20T16:54:09.963Z,37.21
2022-08-20T16:56:41.874Z,36.08
2022-08-20T16:59:12.910Z,36.76
2022-08-20T17:02:07.374Z,37.58
2022-08-20T17:04:59.637Z,36.54
2022-08-20T17:07:46.173Z,36.40
2022-08-20T17:10:20.386Z,37.26
2022-08-20T17:12:59.421Z,37.83
2022-08-20T17:15:32.027Z,38.14
2022-08-20T17:18:20.987Z,38.38
2022-08-20T17:20:51.076Z,38.59
2022-08-20T17:23:21.838Z,38.71
2022-08-20T17:25:59.992Z,38.86
2022-08-20T17:28:33.171Z,38.95
2022-08-20T17:31:03.431Z,38.84
2022-08-20T17:33:35.632Z,38.81
2022-08-20T17:36:11.427Z,38.72
2022-08-20T17:38:46.988Z,38.46
2022-08-20T17:41:22.733Z,38.28
2022-08-20T17:43:59.861Z,38.00
2022-08-20T17:46:30.659Z,37.74
2022-08-20T17:49:01.161Z,37.58
2022-08-20T17:51:38.725Z,37.33
2022-08-20T17:54:16.146Z,37.05
2022-08-20T17:56:45.242Z,36.59
2022-08-20T17:59:40.915Z,36.12
2022-08-20T18:02:10.653Z,35.60
2022-08-20T18:04:38.910Z,34.46
2022-08-20T18:07:19.507Z,32.98
2022-08-20T18:09:57.151Z,31.76
2022-08-20T18:12:34.943Z,30.87
2022-08-20T18:15:11.971Z,30.10
2022-08-20T18:18:10.884Z,29.24
2022-08-20T18:20:55.799Z,28.56
2022-08-20T18:23:29.811Z,28.05
2022-08-20T18:26:07.589Z,27.64
2022-08-20T18:28:42.154Z,27.24
2022-08-20T18:31:25.644Z,26.86
2022-08-20T18:33:53.827Z,26.54
2022-08-20T18:36:28.676Z,26.20
2022-08-20T18:39:07.242Z,25.87
2022-08-20T18:41:40.055Z,25.59
2022-08-20T18:44:13.409Z,25.37
2022-08-20T18:46:55.373Z,25.11
2022-08-20T18:49:31.164Z,24.87
2022-08-20T18:52:09.953Z,24.64
2022-08-20T18:54:42.592Z,24.45
2022-08-20T18:57:21.921Z,24.27
2022-08-20T18:59:58.619Z,24.10
2022-08-20T19:02:32.554Z,23.93
2022-08-20T19:05:06.053Z,23.78
2022-08-20T19:07:45.693Z,23.62
2022-08-20T19:10:44.135Z,23.45
2022-08-20T19:13:48.333Z,23.32
2022-08-20T19:16:21.425Z,23.26
2022-08-20T19:18:52.747Z,23.20
2022-08-20T19:21:27.355Z,23.14
2022-08-20T19:24:01.612Z,23.07
2022-08-20T19:26:34.628Z,22.99
2022-08-20T19:29:09.416Z,22.92
2022-08-20T19:31:38.906Z,22.86
2022-08-20T19:34:20.272Z,22.81
2022-08-20T19:36:57.813Z,22.75
2022-08-20T19:39:27.794Z,22.74
2022-08-20T19:42:03.689Z,22.74
2022-08-20T19:44:37.889Z,22.72
2022-08-20T19:47:15.646Z,22.69
2022-08-20T19:49:59.738Z,22.67
2022-08-20T19:52:41.479Z,22.67
2022-08-20T19:55:22.653Z,22.67
2022-08-20T19:57:57.099Z,22.65
2022-08-20T20:00:27.521Z,22.62
2022-08-20T20:02:55.988Z,22.60
2022-08-20T20:05:24.337Z,22.54
2022-08-20T20:07:59.158Z,22.51
2022-08-20T20:10:33.042Z,22.47
2022-08-20T20:13:09.827Z,22.46
2022-08-20T20:15:38.885Z,22.44
2022-08-20T20:18:08.170Z,22.41
2022-08-20T20:20:55.903Z,22.32
2022-08-20T20:23:45.537Z,22.22
2022-08-20T20:26:19.925Z,22.08
2022-08-20T20:28:54.083Z,21.96
2022-08-20T20:31:26.357Z,21.83
2022-08-20T20:33:57.583Z,21.72
2022-08-20T20:36:37.323Z,21.61
2022-08-20T20:39:14.319Z,21.52
2022-08-20T20:44:26.501Z,21.36
2022-08-20T20:46:58.723Z,21.30
2022-08-20T20:49:30.115Z,21.24
2022-08-20T20:52:02.591Z,21.20
2022-08-20T20:54:41.301Z,21.17
2022-08-20T20:57:38.161Z,21.19
2022-08-20T21:00:21.485Z,21.21
2022-08-20T21:02:49.824Z,21.24
2022-08-20T21:05:20.913Z,21.19
2022-08-20T21:07:52.217Z,21.11
2022-08-20T21:10:23.020Z,20.99
2022-08-20T21:12:53.136Z,20.90
2022-08-20T21:15:25.554Z,20.83
2022-08-20T21:17:54.733Z,20.76
2022-08-20T21:20:23.556Z,20.72
2022-08-20T21:22:51.973Z,20.69
2022-08-20T21:25:20.494Z,20.67
2022-08-20T21:27:51.202Z,20.62
2022-08-20T21:30:23.126Z,20.58
2022-08-20T21:32:51.923Z,20.52
2022-08-20T21:35:20.566Z,20.49
2022-08-20T21:37:48.807Z,20.43
2022-08-20T21:40:18.196Z,20.36
2022-08-20T21:42:51.221Z,20.31
2022-08-20T21:45:20.340Z,20.25
2022-08-20T21:47:49.854Z,20.20
2022-08-20T21:50:20.080Z,20.14
2022-08-20T21:52:55.329Z,20.09
2022-08-20T21:55:29.346Z,20.06
2022-08-20T21:57:58.540Z,20.03
2022-08-20T22:00:52.353Z,19.96
2022-08-20T22:03:24.379Z,19.91
2022-08-20T22:05:52.998Z,19.87
2022-08-20T22:08:24.166Z,19.82
2022-08-20T22:10:57.700Z,19.76
2022-08-20T22:13:28.271Z,19.74
2022-08-20T22:15:56.435Z,19.68
2022-08-20T22:18:25.992Z,19.65
2022-08-20T22:20:54.246Z,19.59
2022-08-20T22:23:23.139Z,19.56
2022-08-20T22:25:52.064Z,19.53
2022-08-20T22:28:21.563Z,19.51
2022-08-20T22:30:50.326Z,19.49
2022-08-20T22:33:22.713Z,19.47
2022-08-20T22:35:54.842Z,19.46
2022-08-20T22:38:24.331Z,19.46
2022-08-20T22:40:53.972Z,19.46
2022-08-20T22:43:23.415Z,19.46
2022-08-20T22:45:56.975Z,19.45
2022-08-20T22:48:25.267Z,19.42
2022-08-20T22:50:55.102Z,19.37
2022-08-20T22:53:25.923Z,19.30
2022-08-20T22:55:54.770Z,19.26
2022-08-20T22:58:31.311Z,19.23
2022-08-20T23:01:02.277Z,19.18
2022-08-20T23:03:39.291Z,19.14
2022-08-20T23:06:11.372Z,19.09
2022-08-20T23:08:40.202Z,19.05
2022-08-20T23:11:08.561Z,18.99
2022-08-20T23:13:36.829Z,18.94
2022-08-20T23:16:05.906Z,18.91
2022-08-20T23:18:34.248Z,18.86
2022-08-20T23:21:02.566Z,18.80
2022-08-20T23:23:32.086Z,18.75
2022-08-20T23:26:01.420Z,18.71
2022-08-20T23:28:29.634Z,18.67
2022-08-20T23:30:57.755Z,18.62
2022-08-20T23:33:28.308Z,18.57
2022-08-20T23:35:56.822Z,18.54
2022-08-20T23:38:25.009Z,18.50
2022-08-20T23:40:54.481Z,18.46
2022-08-20T23:43:22.669Z,18.42
2022-08-20T23:45:50.912Z,18.37
2022-08-20T23:48:18.972Z,18.32
2022-08-20T23:50:47.126Z,18.29
2022-08-20T23:53:15.238Z,18.25
2022-08-20T23:55:46.246Z,18.22
2022-08-20T23:58:17.919Z,18.19
